KSYN/SYN METAR and TAF weather

Enter ICAO airport designator
Station Type Date Time Source
KSYN METAR 2020/09/26 21:15 UTC NOAA

KSYN 262115Z AUTO 00000KT 10SM BKN024 OVC030 21/18 A2947 RMK AO2 T02100181


Station Type Date Time Source
KSYN Decoded METAR 2020/09/26 21:15 UTC NOAA

Stanton, Stanton Airfield, MN, United States (KSYN) 44-28-31N 093-00-58W
Sep 26, 2020 - 05:15 PM EDT / 2020.09.26 2115 UTC
Wind: Calm:0
Visibility: 10 mile(s):0
Sky conditions: overcast
Temperature: 69.8 F (21.0 C)
Dew Point: 64.6 F (18.1 C)
Relative Humidity: 83%
Pressure (altimeter): 29.47 in. Hg (997 hPa)
ob: KSYN 262115Z AUTO 00000KT 10SM BKN024 OVC030 21/18 A2947 RMK AO2 T02100181
cycle: 21

Station Type Date Time Source
KSYN TAF UTC NOAA

Error!

Example: see airport list